Terminal Aerodrome Forecast
Issued by NWS

Home |  Current Version |  Previous Version |  Text Only |  Print | Product List |  Glossary On
Versions: 1 2 3 4 5 6 7 8 9 10 11 12 13
435
FTUS44 KTSA 201720
TAFROG
TAF
KROG 201720Z 2018/2118 24007KT P6SM SCT050 BKN120
     FM210600 VRB05KT P6SM VCSH BKN060 PROB30 2109/2115 4SM -TSRA BR
      BKN035CB=